sensor_id;sensor_type;location;lat;lon;timestamp;pressure;altitude;pressure_sealevel;temperature;humidity
62333;BME280;48624;49.812;8.562;2024-03-22T00:01:04;101306.06;;;9.22;85.19
62333;BME280;48624;49.812;8.562;2024-03-22T00:03:30;101303.56;;;9.19;84.62
62333;BME280;48624;49.812;8.562;2024-03-22T00:05:56;101300.44;;;9.10;85.36
62333;BME280;48624;49.812;8.562;2024-03-22T00:08:22;101293.59;;;9.06;85.89
62333;BME280;48624;49.812;8.562;2024-03-22T00:10:47;101298.72;;;9.09;85.05
62333;BME280;48624;49.812;8.562;2024-03-22T00:13:13;101285.78;;;9.03;85.21
62333;BME280;48624;49.812;8.562;2024-03-22T00:15:39;101284.31;;;8.97;85.38
62333;BME280;48624;49.812;8.562;2024-03-22T00:18:04;101286.19;;;8.95;85.26
62333;BME280;48624;49.812;8.562;2024-03-22T00:20:29;101291.63;;;8.92;85.24
62333;BME280;48624;49.812;8.562;2024-03-22T00:22:55;101281.16;;;8.89;85.42
62333;BME280;48624;49.812;8.562;2024-03-22T00:25:21;101278.84;;;8.83;85.89
62333;BME280;48624;49.812;8.562;2024-03-22T00:27:46;101269.53;;;8.74;86.43
62333;BME280;48624;49.812;8.562;2024-03-22T00:30:12;101267.13;;;8.69;86.46
62333;BME280;48624;49.812;8.562;2024-03-22T00:32:37;101258.63;;;8.63;86.94
62333;BME280;48624;49.812;8.562;2024-03-22T00:35:03;101263.25;;;8.57;86.63
62333;BME280;48624;49.812;8.562;2024-03-22T00:37:29;101264.34;;;8.53;86.95
62333;BME280;48624;49.812;8.562;2024-03-22T00:39:55;101263.81;;;8.45;88.27
62333;BME280;48624;49.812;8.562;2024-03-22T00:42:22;101259.66;;;8.39;89.05
62333;BME280;48624;49.812;8.562;2024-03-22T00:44:47;101263.44;;;8.33;89.50
62333;BME280;48624;49.812;8.562;2024-03-22T00:47:12;101250.66;;;8.24;90.94
62333;BME280;48624;49.812;8.562;2024-03-22T00:49:38;101257.69;;;8.24;90.13
62333;BME280;48624;49.812;8.562;2024-03-22T00:52:03;101242.78;;;8.23;89.54
62333;BME280;48624;49.812;8.562;2024-03-22T00:54:28;101238.44;;;8.22;89.07
62333;BME280;48624;49.812;8.562;2024-03-22T00:56:54;101245.94;;;8.12;90.47
62333;BME280;48624;49.812;8.562;2024-03-22T00:59:19;101236.28;;;8.11;90.82
62333;BME280;48624;49.812;8.562;2024-03-22T01:01:44;101239.06;;;8.08;90.84
62333;BME280;48624;49.812;8.562;2024-03-22T01:04:10;101234.72;;;8.07;89.51
62333;BME280;48624;49.812;8.562;2024-03-22T01:06:36;101231.56;;;7.98;91.08
62333;BME280;48624;49.812;8.562;2024-03-22T01:09:01;101230.50;;;8.02;90.28
62333;BME280;48624;49.812;8.562;2024-03-22T01:11:29;101227.88;;;8.02;90.17
62333;BME280;48624;49.812;8.562;2024-03-22T01:13:54;101227.78;;;8.04;89.90
62333;BME280;48624;49.812;8.562;2024-03-22T01:16:20;101217.38;;;8.01;90.15
62333;BME280;48624;49.812;8.562;2024-03-22T01:18:45;101219.25;;;7.99;89.96
62333;BME280;48624;49.812;8.562;2024-03-22T01:21:10;101215.56;;;8.01;89.28
62333;BME280;48624;49.812;8.562;2024-03-22T01:23:35;101217.38;;;8.01;89.62
62333;BME280;48624;49.812;8.562;2024-03-22T01:26:01;101223.44;;;8.03;89.22
62333;BME280;48624;49.812;8.562;2024-03-22T01:28:26;101214.69;;;8.02;88.98
62333;BME280;48624;49.812;8.562;2024-03-22T01:30:51;101212.09;;;8.01;88.93
62333;BME280;48624;49.812;8.562;2024-03-22T01:33:16;101217.78;;;7.91;90.76
62333;BME280;48624;49.812;8.562;2024-03-22T01:35:42;101213.38;;;7.92;90.96
62333;BME280;48624;49.812;8.562;2024-03-22T01:38:07;101223.94;;;7.92;90.71
62333;BME280;48624;49.812;8.562;2024-03-22T01:40:32;101217.78;;;7.91;90.02
62333;BME280;48624;49.812;8.562;2024-03-22T01:42:58;101229.47;;;7.86;91.06
62333;BME280;48624;49.812;8.562;2024-03-22T01:45:24;101221.63;;;7.84;91.31
62333;BME280;48624;49.812;8.562;2024-03-22T01:47:53;101225.13;;;7.85;90.69
62333;BME280;48624;49.812;8.562;2024-03-22T01:50:23;101221.50;;;7.87;90.30
62333;BME280;48624;49.812;8.562;2024-03-22T01:52:48;101218.97;;;7.84;90.92
62333;BME280;48624;49.812;8.562;2024-03-22T01:55:14;101217.41;;;7.80;91.70
62333;BME280;48624;49.812;8.562;2024-03-22T01:57:39;101216.84;;;7.73;92.63
62333;BME280;48624;49.812;8.562;2024-03-22T02:00:06;101222.31;;;7.69;92.79
62333;BME280;48624;49.812;8.562;2024-03-22T02:02:34;101223.34;;;7.64;92.72
62333;BME280;48624;49.812;8.562;2024-03-22T02:04:59;101212.84;;;7.63;91.37
62333;BME280;48624;49.812;8.562;2024-03-22T02:07:24;101220.91;;;7.60;91.75
62333;BME280;48624;49.812;8.562;2024-03-22T02:09:50;101215.19;;;7.50;92.92
62333;BME280;48624;49.812;8.562;2024-03-22T02:12:15;101203.97;;;7.45;93.82
62333;BME280;48624;49.812;8.562;2024-03-22T02:14:45;101206.66;;;7.43;93.27
62333;BME280;48624;49.812;8.562;2024-03-22T02:17:10;101204.09;;;7.42;92.86
62333;BME280;48624;49.812;8.562;2024-03-22T02:19:35;101194.59;;;7.38;93.12
62333;BME280;48624;49.812;8.562;2024-03-22T02:22:00;101194.59;;;7.38;92.76
62333;BME280;48624;49.812;8.562;2024-03-22T02:24:26;101184.97;;;7.36;93.13
62333;BME280;48624;49.812;8.562;2024-03-22T02:26:51;101167.50;;;7.34;93.19
62333;BME280;48624;49.812;8.562;2024-03-22T02:29:16;101167.66;;;7.31;94.36
62333;BME280;48624;49.812;8.562;2024-03-22T02:31:42;101162.38;;;7.31;94.29
62333;BME280;48624;49.812;8.562;2024-03-22T02:34:07;101164.47;;;7.22;95.56
62333;BME280;48624;49.812;8.562;2024-03-22T02:36:33;101158.22;;;7.25;95.07
62333;BME280;48624;49.812;8.562;2024-03-22T02:38:59;101151.31;;;7.22;95.38
62333;BME280;48624;49.812;8.562;2024-03-22T02:41:24;101164.81;;;7.15;96.04
62333;BME280;48624;49.812;8.562;2024-03-22T02:43:49;101156.72;;;7.19;95.98
62333;BME280;48624;49.812;8.562;2024-03-22T02:46:14;101150.97;;;7.10;96.54
62333;BME280;48624;49.812;8.562;2024-03-22T02:48:40;101149.72;;;7.18;95.59
62333;BME280;48624;49.812;8.562;2024-03-22T02:51:05;101151.38;;;7.21;94.68
62333;BME280;48624;49.812;8.562;2024-03-22T02:53:31;101148.88;;;7.18;95.32
62333;BME280;48624;49.812;8.562;2024-03-22T02:55:59;101152.47;;;7.15;95.23
62333;BME280;48624;49.812;8.562;2024-03-22T02:58:25;101153.34;;;7.16;95.05
62333;BME280;48624;49.812;8.562;2024-03-22T03:00:50;101148.81;;;7.19;94.06
62333;BME280;48624;49.812;8.562;2024-03-22T03:03:15;101150.56;;;7.19;94.09
62333;BME280;48624;49.812;8.562;2024-03-22T03:05:42;101143.59;;;7.18;93.80
62333;BME280;48624;49.812;8.562;2024-03-22T03:08:07;101152.28;;;7.20;93.60
62333;BME280;48624;49.812;8.562;2024-03-22T03:10:32;101142.88;;;7.14;94.10
62333;BME280;48624;49.812;8.562;2024-03-22T03:12:58;101145.69;;;7.10;94.58
62333;BME280;48624;49.812;8.562;2024-03-22T03:15:23;101145.84;;;7.06;94.47
62333;BME280;48624;49.812;8.562;2024-03-22T03:17:48;101144.13;;;7.05;93.99
62333;BME280;48624;49.812;8.562;2024-03-22T03:20:13;101139.00;;;7.02;93.80
62333;BME280;48624;49.812;8.562;2024-03-22T03:22:42;101146.91;;;7.02;93.47
62333;BME280;48624;49.812;8.562;2024-03-22T03:25:08;101137.53;;;6.95;94.25
62333;BME280;48624;49.812;8.562;2024-03-22T03:27:34;101147.47;;;6.88;94.87
62333;BME280;48624;49.812;8.562;2024-03-22T03:29:59;101139.66;;;6.85;95.03
62333;BME280;48624;49.812;8.562;2024-03-22T03:32:25;101134.34;;;6.87;94.52
62333;BME280;48624;49.812;8.562;2024-03-22T03:34:51;101135.09;;;6.90;93.92
62333;BME280;48624;49.812;8.562;2024-03-22T03:37:16;101131.38;;;6.94;93.70
62333;BME280;48624;49.812;8.562;2024-03-22T03:39:41;101131.38;;;6.94;94.91
62333;BME280;48624;49.812;8.562;2024-03-22T03:42:06;101127.09;;;6.92;95.22
62333;BME280;48624;49.812;8.562;2024-03-22T03:44:32;101125.13;;;6.97;95.05
62333;BME280;48624;49.812;8.562;2024-03-22T03:46:57;101117.47;;;6.91;95.98
62333;BME280;48624;49.812;8.562;2024-03-22T03:49:22;101118.81;;;7.01;95.47
62333;BME280;48624;49.812;8.562;2024-03-22T03:51:47;101107.22;;;7.05;94.74
62333;BME280;48624;49.812;8.562;2024-03-22T03:54:13;101114.22;;;7.06;95.44
62333;BME280;48624;49.812;8.562;2024-03-22T03:56:38;101118.94;;;7.19;95.00
62333;BME280;48624;49.812;8.562;2024-03-22T03:59:03;101105.66;;;7.22;94.55
62333;BME280;48624;49.812;8.562;2024-03-22T04:01:29;101115.91;;;7.28;94.57
62333;BME280;48624;49.812;8.562;2024-03-22T04:03:54;101114.78;;;7.34;94.53
62333;BME280;48624;49.812;8.562;2024-03-22T04:06:19;101116.19;;;7.43;94.03
62333;BME280;48624;49.812;8.562;2024-03-22T04:08:44;101121.09;;;7.50;93.35
62333;BME280;48624;49.812;8.562;2024-03-22T04:11:10;101112.16;;;7.55;93.29
62333;BME280;48624;49.812;8.562;2024-03-22T04:13:36;101107.56;;;7.58;93.37
62333;BME280;48624;49.812;8.562;2024-03-22T04:16:02;101115.16;;;7.66;93.24
62333;BME280;48624;49.812;8.562;2024-03-22T04:18:27;101108.91;;;7.69;93.11
62333;BME280;48624;49.812;8.562;2024-03-22T04:20:56;101102.53;;;7.73;92.89
62333;BME280;48624;49.812;8.562;2024-03-22T04:23:22;101098.13;;;7.73;92.92
62333;BME280;48624;49.812;8.562;2024-03-22T04:25:58;101082.09;;;7.78;92.79
62333;BME280;48624;49.812;8.562;2024-03-22T04:28:28;101092.50;;;7.81;93.23
62333;BME280;48624;49.812;8.562;2024-03-22T04:31:07;101085.53;;;7.80;93.34
62333;BME280;48624;49.812;8.562;2024-03-22T04:33:34;101085.09;;;7.89;93.19
62333;BME280;48624;49.812;8.562;2024-03-22T04:36:00;101089.22;;;7.95;92.69
62333;BME280;48624;49.812;8.562;2024-03-22T04:38:27;101093.28;;;8.02;92.48
62333;BME280;48624;49.812;8.562;2024-03-22T04:40:52;101079.94;;;8.05;92.33
62333;BME280;48624;49.812;8.562;2024-03-22T04:43:18;101083.38;;;8.08;92.46
62333;BME280;48624;49.812;8.562;2024-03-22T04:45:44;101076.38;;;8.07;91.95
62333;BME280;48624;49.812;8.562;2024-03-22T04:48:10;101070.94;;;8.10;92.48
62333;BME280;48624;49.812;8.562;2024-03-22T04:50:35;101080.53;;;7.93;92.70
62333;BME280;48624;49.812;8.562;2024-03-22T04:53:01;101077.94;;;8.11;92.66
62333;BME280;48624;49.812;8.562;2024-03-22T04:55:27;101075.88;;;8.17;92.40
62333;BME280;48624;49.812;8.562;2024-03-22T04:57:52;101081.28;;;8.14;92.35
62333;BME280;48624;49.812;8.562;2024-03-22T05:00:18;101081.94;;;8.19;91.88
62333;BME280;48624;49.812;8.562;2024-03-22T05:02:43;101070.88;;;8.30;92.01
62333;BME280;48624;49.812;8.562;2024-03-22T05:05:08;101072.19;;;8.39;91.47
62333;BME280;48624;49.812;8.562;2024-03-22T05:07:34;101073.84;;;8.42;91.49
62333;BME280;48624;49.812;8.562;2024-03-22T05:09:59;101074.59;;;8.44;91.20
62333;BME280;48624;49.812;8.562;2024-03-22T05:12:25;101084.94;;;8.49;91.26
62333;BME280;48624;49.812;8.562;2024-03-22T05:14:50;101086.09;;;8.43;91.28
62333;BME280;48624;49.812;8.562;2024-03-22T05:17:15;101086.22;;;8.59;90.62
62333;BME280;48624;49.812;8.562;2024-03-22T05:19:41;101082.38;;;8.66;90.64
62333;BME280;48624;49.812;8.562;2024-03-22T05:22:06;101091.00;;;8.70;90.47
62333;BME280;48624;49.812;8.562;2024-03-22T05:24:32;101087.91;;;8.79;90.12
62333;BME280;48624;49.812;8.562;2024-03-22T05:26:58;101088.91;;;8.77;89.77
62333;BME280;48624;49.812;8.562;2024-03-22T05:29:25;101082.22;;;8.87;89.38
62333;BME280;48624;49.812;8.562;2024-03-22T05:31:50;101080.09;;;8.94;89.35
62333;BME280;48624;49.812;8.562;2024-03-22T05:34:17;101081.56;;;8.99;89.08
62333;BME280;48624;49.812;8.562;2024-03-22T05:36:45;101085.63;;;9.07;88.82
62333;BME280;48624;49.812;8.562;2024-03-22T05:39:11;101082.81;;;9.10;89.16
62333;BME280;48624;49.812;8.562;2024-03-22T05:41:37;101078.47;;;9.09;89.34
62333;BME280;48624;49.812;8.562;2024-03-22T05:44:03;101082.03;;;9.08;89.15
62333;BME280;48624;49.812;8.562;2024-03-22T05:46:29;101077.38;;;9.13;88.92
62333;BME280;48624;49.812;8.562;2024-03-22T05:48:54;101081.25;;;9.23;88.71
62333;BME280;48624;49.812;8.562;2024-03-22T05:51:20;101082.66;;;9.30;88.74
62333;BME280;48624;49.812;8.562;2024-03-22T05:53:45;101083.66;;;9.28;88.47
62333;BME280;48624;49.812;8.562;2024-03-22T05:56:11;101081.22;;;9.41;88.16
62333;BME280;48624;49.812;8.562;2024-03-22T05:58:36;101070.69;;;9.23;88.82
62333;BME280;48624;49.812;8.562;2024-03-22T06:01:02;101080.78;;;9.33;88.86
62333;BME280;48624;49.812;8.562;2024-03-22T06:03:28;101078.31;;;9.29;88.67
62333;BME280;48624;49.812;8.562;2024-03-22T06:05:53;101066.44;;;9.37;88.26
62333;BME280;48624;49.812;8.562;2024-03-22T06:08:21;101065.75;;;9.33;88.01
62333;BME280;48624;49.812;8.562;2024-03-22T06:10:47;101073.31;;;9.23;87.87
62333;BME280;48624;49.812;8.562;2024-03-22T06:13:12;101072.59;;;9.37;88.00
62333;BME280;48624;49.812;8.562;2024-03-22T06:15:37;101073.06;;;9.46;87.86
62333;BME280;48624;49.812;8.562;2024-03-22T06:18:03;101070.31;;;9.47;87.72
62333;BME280;48624;49.812;8.562;2024-03-22T06:20:28;101074.72;;;9.64;87.40
62333;BME280;48624;49.812;8.562;2024-03-22T06:22:53;101069.75;;;9.74;87.37
62333;BME280;48624;49.812;8.562;2024-03-22T06:25:19;101062.31;;;9.65;87.66
62333;BME280;48624;49.812;8.562;2024-03-22T06:27:44;101055.00;;;9.70;87.12
62333;BME280;48624;49.812;8.562;2024-03-22T06:30:11;101048.69;;;9.73;87.38
62333;BME280;48624;49.812;8.562;2024-03-22T06:32:36;101055.69;;;9.90;87.49
62333;BME280;48624;49.812;8.562;2024-03-22T06:35:01;101050.47;;;9.88;87.59
62333;BME280;48624;49.812;8.562;2024-03-22T06:37:30;101040.75;;;9.89;87.49
62333;BME280;48624;49.812;8.562;2024-03-22T06:39:56;101041.56;;;10.05;87.20
62333;BME280;48624;49.812;8.562;2024-03-22T06:42:22;101037.91;;;10.08;86.81
62333;BME280;48624;49.812;8.562;2024-03-22T06:44:48;101033.72;;;10.20;87.39
62333;BME280;48624;49.812;8.562;2024-03-22T06:47:13;101028.34;;;10.21;86.98
62333;BME280;48624;49.812;8.562;2024-03-22T06:49:39;101024.66;;;10.24;86.67
62333;BME280;48624;49.812;8.562;2024-03-22T06:52:04;101021.78;;;10.59;86.54
62333;BME280;48624;49.812;8.562;2024-03-22T06:54:29;101019.47;;;10.69;85.80
62333;BME280;48624;49.812;8.562;2024-03-22T06:56:55;101011.66;;;10.66;85.84
62333;BME280;48624;49.812;8.562;2024-03-22T06:59:20;101017.38;;;10.74;85.55
62333;BME280;48624;49.812;8.562;2024-03-22T07:01:45;101019.72;;;10.64;85.16
62333;BME280;48624;49.812;8.562;2024-03-22T07:04:10;101017.09;;;10.64;85.64
62333;BME280;48624;49.812;8.562;2024-03-22T07:06:36;101014.84;;;10.87;85.27
62333;BME280;48624;49.812;8.562;2024-03-22T07:09:01;101020.53;;;10.95;85.36
62333;BME280;48624;49.812;8.562;2024-03-22T07:11:26;101018.56;;;10.99;85.24
62333;BME280;48624;49.812;8.562;2024-03-22T07:13:51;101016.00;;;11.12;84.81
62333;BME280;48624;49.812;8.562;2024-03-22T07:16:18;101011.84;;;11.22;84.55
62333;BME280;48624;49.812;8.562;2024-03-22T07:18:43;101019.72;;;11.24;85.12
62333;BME280;48624;49.812;8.562;2024-03-22T07:21:09;101009.13;;;11.24;85.10
62333;BME280;48624;49.812;8.562;2024-03-22T07:23:34;101017.44;;;11.18;84.94
62333;BME280;48624;49.812;8.562;2024-03-22T07:25:59;101016.28;;;11.36;84.95
62333;BME280;48624;49.812;8.562;2024-03-22T07:28:25;101012.97;;;11.33;84.70
62333;BME280;48624;49.812;8.562;2024-03-22T07:30:50;101015.16;;;11.41;84.81
62333;BME280;48624;49.812;8.562;2024-03-22T07:33:16;101010.97;;;11.51;84.64
62333;BME280;48624;49.812;8.562;2024-03-22T07:35:43;101006.31;;;11.55;84.13
62333;BME280;48624;49.812;8.562;2024-03-22T07:38:09;101008.97;;;11.55;83.74
62333;BME280;48624;49.812;8.562;2024-03-22T07:40:34;101009.72;;;11.57;84.15
62333;BME280;48624;49.812;8.562;2024-03-22T07:43:00;101004.41;;;11.71;83.71
62333;BME280;48624;49.812;8.562;2024-03-22T07:45:30;100998.19;;;11.58;82.93
62333;BME280;48624;49.812;8.562;2024-03-22T07:47:56;100989.56;;;11.54;83.36
62333;BME280;48624;49.812;8.562;2024-03-22T07:50:21;100990.25;;;11.71;83.70
62333;BME280;48624;49.812;8.562;2024-03-22T07:52:46;100992.31;;;11.52;83.40
62333;BME280;48624;49.812;8.562;2024-03-22T07:55:11;100988.63;;;11.83;83.11
62333;BME280;48624;49.812;8.562;2024-03-22T07:57:37;100990.19;;;12.00;82.82
62333;BME280;48624;49.812;8.562;2024-03-22T08:00:02;100990.63;;;11.79;82.46
62333;BME280;48624;49.812;8.562;2024-03-22T08:02:28;100991.13;;;11.71;82.23
62333;BME280;48624;49.812;8.562;2024-03-22T08:04:53;100983.38;;;11.96;82.42
62333;BME280;48624;49.812;8.562;2024-03-22T08:07:19;100982.91;;;12.03;81.79
62333;BME280;48624;49.812;8.562;2024-03-22T08:09:44;100990.19;;;11.72;81.95
62333;BME280;48624;49.812;8.562;2024-03-22T08:12:09;100984.78;;;12.01;81.89
62333;BME280;48624;49.812;8.562;2024-03-22T08:14:34;100978.06;;;11.96;81.35
62333;BME280;48624;49.812;8.562;2024-03-22T08:17:00;100976.63;;;12.04;81.76
62333;BME280;48624;49.812;8.562;2024-03-22T08:19:25;100975.50;;;11.94;81.76
62333;BME280;48624;49.812;8.562;2024-03-22T08:21:50;100971.97;;;12.08;82.06
62333;BME280;48624;49.812;8.562;2024-03-22T08:24:18;100965.72;;;12.09;81.48
62333;BME280;48624;49.812;8.562;2024-03-22T08:26:43;100964.59;;;12.26;81.62
62333;BME280;48624;49.812;8.562;2024-03-22T08:29:11;100965.91;;;12.33;81.25
62333;BME280;48624;49.812;8.562;2024-03-22T08:31:37;100962.88;;;11.98;81.44
62333;BME280;48624;49.812;8.562;2024-03-22T08:34:02;100960.94;;;12.14;81.98
62333;BME280;48624;49.812;8.562;2024-03-22T08:36:29;100959.34;;;12.12;82.15
62333;BME280;48624;49.812;8.562;2024-03-22T08:38:54;100955.59;;;12.29;81.78
62333;BME280;48624;49.812;8.562;2024-03-22T08:41:19;100949.81;;;12.22;82.01
62333;BME280;48624;49.812;8.562;2024-03-22T08:43:44;100953.88;;;12.00;82.41
62333;BME280;48624;49.812;8.562;2024-03-22T08:46:10;100942.91;;;11.92;82.94
62333;BME280;48624;49.812;8.562;2024-03-22T08:48:36;100946.06;;;12.12;82.92
62333;BME280;48624;49.812;8.562;2024-03-22T08:51:02;100943.75;;;12.20;82.25
62333;BME280;48624;49.812;8.562;2024-03-22T08:53:28;100948.13;;;12.34;82.45
62333;BME280;48624;49.812;8.562;2024-03-22T08:55:53;100937.94;;;12.41;82.67
62333;BME280;48624;49.812;8.562;2024-03-22T08:58:18;100944.53;;;12.48;82.52
62333;BME280;48624;49.812;8.562;2024-03-22T09:00:44;100933.91;;;12.48;82.88
62333;BME280;48624;49.812;8.562;2024-03-22T09:03:10;100938.72;;;12.43;83.07
62333;BME280;48624;49.812;8.562;2024-03-22T09:05:35;100939.88;;;12.65;82.42
62333;BME280;48624;49.812;8.562;2024-03-22T09:08:01;100935.72;;;12.73;82.63
62333;BME280;48624;49.812;8.562;2024-03-22T09:10:28;100926.69;;;12.76;82.42
62333;BME280;48624;49.812;8.562;2024-03-22T09:12:54;100926.28;;;12.95;81.46
62333;BME280;48624;49.812;8.562;2024-03-22T09:15:20;100925.09;;;12.99;80.47
62333;BME280;48624;49.812;8.562;2024-03-22T09:17:46;100922.25;;;12.76;80.40
62333;BME280;48624;49.812;8.562;2024-03-22T09:20:11;100910.88;;;13.25;80.09
62333;BME280;48624;49.812;8.562;2024-03-22T09:22:37;100907.44;;;12.98;80.12
62333;BME280;48624;49.812;8.562;2024-03-22T09:25:04;100904.13;;;13.08;78.87
62333;BME280;48624;49.812;8.562;2024-03-22T09:27:30;100901.66;;;13.42;78.31
62333;BME280;48624;49.812;8.562;2024-03-22T09:29:55;100898.50;;;13.74;77.64
62333;BME280;48624;49.812;8.562;2024-03-22T09:32:21;100897.97;;;13.69;76.94
62333;BME280;48624;49.812;8.562;2024-03-22T09:34:48;100897.63;;;13.73;76.34
62333;BME280;48624;49.812;8.562;2024-03-22T09:37:14;100880.78;;;13.97;76.24
62333;BME280;48624;49.812;8.562;2024-03-22T09:39:40;100880.72;;;14.22;76.31
62333;BME280;48624;49.812;8.562;2024-03-22T09:42:06;100889.19;;;14.15;76.11
62333;BME280;48624;49.812;8.562;2024-03-22T09:44:32;100878.31;;;14.19;75.51
62333;BME280;48624;49.812;8.562;2024-03-22T09:46:59;100870.00;;;14.46;74.36
62333;BME280;48624;49.812;8.562;2024-03-22T09:49:25;100869.28;;;14.55;74.58
62333;BME280;48624;49.812;8.562;2024-03-22T09:51:51;100870.59;;;14.50;73.11
62333;BME280;48624;49.812;8.562;2024-03-22T09:54:16;100869.88;;;14.70;74.61
62333;BME280;48624;49.812;8.562;2024-03-22T09:56:42;100874.25;;;14.49;73.37
62333;BME280;48624;49.812;8.562;2024-03-22T09:59:08;100864.47;;;14.83;71.98
62333;BME280;48624;49.812;8.562;2024-03-22T10:01:36;100858.31;;;15.38;71.62
62333;BME280;48624;49.812;8.562;2024-03-22T10:04:01;100859.38;;;15.47;68.56
62333;BME280;48624;49.812;8.562;2024-03-22T10:06:29;100864.81;;;15.78;67.66
62333;BME280;48624;49.812;8.562;2024-03-22T10:08:54;100860.22;;;15.80;66.20
62333;BME280;48624;49.812;8.562;2024-03-22T10:11:19;100858.94;;;15.63;67.05
62333;BME280;48624;49.812;8.562;2024-03-22T10:13:44;100850.16;;;16.05;65.43
62333;BME280;48624;49.812;8.562;2024-03-22T10:16:10;100855.66;;;15.71;65.80
62333;BME280;48624;49.812;8.562;2024-03-22T10:18:36;100849.84;;;16.20;64.46
62333;BME280;48624;49.812;8.562;2024-03-22T10:21:05;100852.88;;;15.94;64.11
62333;BME280;48624;49.812;8.562;2024-03-22T10:23:31;100846.75;;;16.25;64.13
62333;BME280;48624;49.812;8.562;2024-03-22T10:25:57;100834.97;;;16.27;64.09
62333;BME280;48624;49.812;8.562;2024-03-22T10:28:26;100842.34;;;16.45;62.79
62333;BME280;48624;49.812;8.562;2024-03-22T10:30:52;100834.16;;;16.36;63.42
62333;BME280;48624;49.812;8.562;2024-03-22T10:33:21;100833.53;;;16.23;63.80
62333;BME280;48624;49.812;8.562;2024-03-22T10:35:53;100826.59;;;16.20;63.32
62333;BME280;48624;49.812;8.562;2024-03-22T10:38:20;100825.84;;;16.61;62.31
62333;BME280;48624;49.812;8.562;2024-03-22T10:40:46;100825.56;;;16.33;62.98
62333;BME280;48624;49.812;8.562;2024-03-22T10:43:13;100820.91;;;16.66;63.15
62333;BME280;48624;49.812;8.562;2024-03-22T10:45:40;100810.63;;;16.61;62.21
62333;BME280;48624;49.812;8.562;2024-03-22T10:48:09;100809.06;;;16.59;62.61
62333;BME280;48624;49.812;8.562;2024-03-22T10:50:35;100803.69;;;16.49;61.39
62333;BME280;48624;49.812;8.562;2024-03-22T10:53:04;100797.41;;;16.60;62.13
62333;BME280;48624;49.812;8.562;2024-03-22T10:55:37;100796.09;;;16.23;62.63
62333;BME280;48624;49.812;8.562;2024-03-22T10:58:04;100792.09;;;16.39;62.58
62333;BME280;48624;49.812;8.562;2024-03-22T11:00:34;100795.31;;;16.73;61.54
62333;BME280;48624;49.812;8.562;2024-03-22T11:03:03;100779.03;;;16.96;61.33
62333;BME280;48624;49.812;8.562;2024-03-22T11:05:29;100771.16;;;16.95;62.21
62333;BME280;48624;49.812;8.562;2024-03-22T11:08:05;100781.94;;;16.83;63.29
62333;BME280;48624;49.812;8.562;2024-03-22T11:10:33;100760.13;;;16.88;62.93
62333;BME280;48624;49.812;8.562;2024-03-22T11:13:03;100763.88;;;17.16;59.65
62333;BME280;48624;49.812;8.562;2024-03-22T11:15:29;100756.38;;;17.10;59.34
62333;BME280;48624;49.812;8.562;2024-03-22T11:17:55;100756.81;;;17.45;58.83
62333;BME280;48624;49.812;8.562;2024-03-22T11:20:20;100754.56;;;17.11;61.13
62333;BME280;48624;49.812;8.562;2024-03-22T11:22:46;100741.28;;;16.99;60.56
62333;BME280;48624;49.812;8.562;2024-03-22T11:25:12;100737.38;;;17.23;60.96
62333;BME280;48624;49.812;8.562;2024-03-22T11:27:37;100732.59;;;17.27;60.82
62333;BME280;48624;49.812;8.562;2024-03-22T11:30:02;100730.75;;;17.47;60.27
62333;BME280;48624;49.812;8.562;2024-03-22T11:32:28;100726.22;;;17.57;58.17
62333;BME280;48624;49.812;8.562;2024-03-22T11:34:54;100722.41;;;17.40;58.98
62333;BME280;48624;49.812;8.562;2024-03-22T11:37:19;100716.34;;;17.58;57.86
62333;BME280;48624;49.812;8.562;2024-03-22T11:39:44;100709.28;;;17.67;57.74
62333;BME280;48624;49.812;8.562;2024-03-22T11:42:10;100705.66;;;17.38;57.81
62333;BME280;48624;49.812;8.562;2024-03-22T11:44:37;100700.41;;;18.14;57.19
62333;BME280;48624;49.812;8.562;2024-03-22T11:47:06;100691.97;;;17.99;56.98
62333;BME280;48624;49.812;8.562;2024-03-22T11:49:31;100693.22;;;18.42;53.49
62333;BME280;48624;49.812;8.562;2024-03-22T11:51:57;100687.75;;;18.34;55.58
62333;BME280;48624;49.812;8.562;2024-03-22T11:54:23;100683.31;;;18.15;54.64
62333;BME280;48624;49.812;8.562;2024-03-22T11:56:51;100683.72;;;18.48;55.10
62333;BME280;48624;49.812;8.562;2024-03-22T11:59:19;100674.03;;;18.83;53.16
62333;BME280;48624;49.812;8.562;2024-03-22T12:01:45;100675.94;;;18.91;53.03
62333;BME280;48624;49.812;8.562;2024-03-22T12:04:10;100668.34;;;19.05;53.19
62333;BME280;48624;49.812;8.562;2024-03-22T12:06:42;100664.34;;;18.91;52.80
62333;BME280;48624;49.812;8.562;2024-03-22T12:09:07;100663.22;;;18.75;53.56
62333;BME280;48624;49.812;8.562;2024-03-22T12:11:33;100665.84;;;19.03;52.72
62333;BME280;48624;49.812;8.562;2024-03-22T12:13:58;100659.22;;;18.61;54.77
62333;BME280;48624;49.812;8.562;2024-03-22T12:16:24;100652.00;;;18.80;53.43
62333;BME280;48624;49.812;8.562;2024-03-22T12:18:49;100656.84;;;19.12;53.54
62333;BME280;48624;49.812;8.562;2024-03-22T12:21:14;100653.63;;;19.09;53.04
62333;BME280;48624;49.812;8.562;2024-03-22T12:23:40;100645.94;;;19.14;53.82
62333;BME280;48624;49.812;8.562;2024-03-22T12:26:05;100647.09;;;18.93;54.35
62333;BME280;48624;49.812;8.562;2024-03-22T12:28:32;100644.25;;;19.13;53.73
62333;BME280;48624;49.812;8.562;2024-03-22T12:30:57;100638.63;;;19.24;53.40
62333;BME280;48624;49.812;8.562;2024-03-22T12:33:23;100642.91;;;19.09;53.52
62333;BME280;48624;49.812;8.562;2024-03-22T12:35:48;100639.66;;;19.50;53.05
62333;BME280;48624;49.812;8.562;2024-03-22T12:40:46;100637.94;;;19.22;54.17
62333;BME280;48624;49.812;8.562;2024-03-22T12:43:11;100623.25;;;19.35;53.38
62333;BME280;48624;49.812;8.562;2024-03-22T12:45:37;100617.81;;;20.22;51.37
62333;BME280;48624;49.812;8.562;2024-03-22T12:48:02;100625.75;;;20.32;50.75
62333;BME280;48624;49.812;8.562;2024-03-22T12:50:29;100624.13;;;20.64;48.43